sensor_id;sensor_type;location;lat;lon;timestamp;P1;durP1;ratioP1;P2;durP2;ratioP2
9745;SDS011;4912;50.836;12.958;2023-03-21T00:01:03;10.57;;;5.95;;
9745;SDS011;4912;50.836;12.958;2023-03-21T00:03:34;9.90;;;5.63;;
9745;SDS011;4912;50.836;12.958;2023-03-21T00:06:05;7.78;;;5.03;;
9745;SDS011;4912;50.836;12.958;2023-03-21T00:08:38;8.13;;;5.13;;
9745;SDS011;4912;50.836;12.958;2023-03-21T00:11:12;9.50;;;5.30;;
9745;SDS011;4912;50.836;12.958;2023-03-21T00:13:43;9.07;;;5.13;;
9745;SDS011;4912;50.836;12.958;2023-03-21T00:16:14;8.93;;;5.35;;
9745;SDS011;4912;50.836;12.958;2023-03-21T00:18:56;8.68;;;5.13;;
9745;SDS011;4912;50.836;12.958;2023-03-21T00:21:28;9.15;;;5.03;;
9745;SDS011;4912;50.836;12.958;2023-03-21T00:24:19;11.23;;;5.43;;
9745;SDS011;4912;50.836;12.958;2023-03-21T00:29:43;8.57;;;5.00;;
9745;SDS011;4912;50.836;12.958;2023-03-21T00:32:16;9.63;;;4.82;;
9745;SDS011;4912;50.836;12.958;2023-03-21T00:34:48;8.23;;;4.70;;
9745;SDS011;4912;50.836;12.958;2023-03-21T00:37:39;8.85;;;5.68;;
9745;SDS011;4912;50.836;12.958;2023-03-21T00:40:10;9.43;;;5.38;;
9745;SDS011;4912;50.836;12.958;2023-03-21T00:42:55;8.23;;;5.07;;
9745;SDS011;4912;50.836;12.958;2023-03-21T00:45:26;10.05;;;5.18;;
9745;SDS011;4912;50.836;12.958;2023-03-21T00:47:59;9.60;;;5.03;;
9745;SDS011;4912;50.836;12.958;2023-03-21T00:50:30;9.13;;;5.13;;
9745;SDS011;4912;50.836;12.958;2023-03-21T00:53:00;10.75;;;5.65;;
9745;SDS011;4912;50.836;12.958;2023-03-21T00:55:31;9.73;;;5.00;;
9745;SDS011;4912;50.836;12.958;2023-03-21T00:58:06;10.93;;;4.88;;
9745;SDS011;4912;50.836;12.958;2023-03-21T01:00:37;9.02;;;5.05;;
9745;SDS011;4912;50.836;12.958;2023-03-21T01:03:09;7.65;;;4.25;;
9745;SDS011;4912;50.836;12.958;2023-03-21T01:05:50;8.40;;;4.38;;
9745;SDS011;4912;50.836;12.958;2023-03-21T01:08:32;5.13;;;3.22;;
9745;SDS011;4912;50.836;12.958;2023-03-21T01:11:19;6.65;;;3.20;;
9745;SDS011;4912;50.836;12.958;2023-03-21T01:13:56;8.15;;;3.40;;
9745;SDS011;4912;50.836;12.958;2023-03-21T01:16:47;5.60;;;3.05;;
9745;SDS011;4912;50.836;12.958;2023-03-21T01:19:19;6.03;;;3.13;;
9745;SDS011;4912;50.836;12.958;2023-03-21T01:22:13;6.40;;;2.97;;
9745;SDS011;4912;50.836;12.958;2023-03-21T01:24:44;5.35;;;2.55;;
9745;SDS011;4912;50.836;12.958;2023-03-21T01:27:24;5.82;;;2.88;;
9745;SDS011;4912;50.836;12.958;2023-03-21T01:29:57;5.53;;;2.70;;
9745;SDS011;4912;50.836;12.958;2023-03-21T01:32:28;6.20;;;2.80;;
9745;SDS011;4912;50.836;12.958;2023-03-21T01:34:59;4.85;;;2.80;;
9745;SDS011;4912;50.836;12.958;2023-03-21T01:37:29;5.10;;;2.30;;
9745;SDS011;4912;50.836;12.958;2023-03-21T01:40:00;5.18;;;2.83;;
9745;SDS011;4912;50.836;12.958;2023-03-21T01:42:32;6.93;;;2.60;;
9745;SDS011;4912;50.836;12.958;2023-03-21T01:45:57;6.47;;;3.08;;
9745;SDS011;4912;50.836;12.958;2023-03-21T01:48:44;4.78;;;2.72;;
9745;SDS011;4912;50.836;12.958;2023-03-21T01:51:14;4.03;;;2.67;;
9745;SDS011;4912;50.836;12.958;2023-03-21T01:53:56;8.25;;;2.58;;
9745;SDS011;4912;50.836;12.958;2023-03-21T01:56:31;7.45;;;2.90;;
9745;SDS011;4912;50.836;12.958;2023-03-21T01:59:07;6.28;;;2.70;;
9745;SDS011;4912;50.836;12.958;2023-03-21T02:02:04;7.03;;;2.60;;
9745;SDS011;4912;50.836;12.958;2023-03-21T02:04:55;4.50;;;2.65;;
9745;SDS011;4912;50.836;12.958;2023-03-21T02:07:28;5.18;;;2.45;;
9745;SDS011;4912;50.836;12.958;2023-03-21T02:10:07;4.78;;;2.70;;
9745;SDS011;4912;50.836;12.958;2023-03-21T02:12:45;6.10;;;2.70;;
9745;SDS011;4912;50.836;12.958;2023-03-21T02:15:16;5.13;;;2.40;;
9745;SDS011;4912;50.836;12.958;2023-03-21T02:18:05;5.28;;;2.67;;
9745;SDS011;4912;50.836;12.958;2023-03-21T02:20:59;6.68;;;3.08;;
9745;SDS011;4912;50.836;12.958;2023-03-21T02:24:21;5.68;;;2.63;;
9745;SDS011;4912;50.836;12.958;2023-03-21T02:27:25;5.30;;;3.00;;
9745;SDS011;4912;50.836;12.958;2023-03-21T02:30:13;5.35;;;3.20;;
9745;SDS011;4912;50.836;12.958;2023-03-21T02:33:26;6.82;;;3.15;;
9745;SDS011;4912;50.836;12.958;2023-03-21T02:36:24;6.97;;;3.10;;
9745;SDS011;4912;50.836;12.958;2023-03-21T02:39:01;5.53;;;2.85;;
9745;SDS011;4912;50.836;12.958;2023-03-21T02:41:43;6.50;;;3.20;;
9745;SDS011;4912;50.836;12.958;2023-03-21T02:44:30;8.48;;;3.08;;
9745;SDS011;4912;50.836;12.958;2023-03-21T02:47:07;7.25;;;2.97;;
9745;SDS011;4912;50.836;12.958;2023-03-21T02:49:42;6.70;;;3.00;;
9745;SDS011;4912;50.836;12.958;2023-03-21T02:52:19;5.93;;;3.40;;
9745;SDS011;4912;50.836;12.958;2023-03-21T02:55:10;17.95;;;9.88;;
9745;SDS011;4912;50.836;12.958;2023-03-21T02:57:51;37.63;;;21.42;;
9745;SDS011;4912;50.836;12.958;2023-03-21T03:00:38;11.02;;;5.47;;
9745;SDS011;4912;50.836;12.958;2023-03-21T03:03:18;6.80;;;3.47;;
9745;SDS011;4912;50.836;12.958;2023-03-21T03:06:01;7.70;;;3.33;;
9745;SDS011;4912;50.836;12.958;2023-03-21T03:08:41;7.95;;;3.20;;
9745;SDS011;4912;50.836;12.958;2023-03-21T03:11:32;8.85;;;3.50;;
9745;SDS011;4912;50.836;12.958;2023-03-21T03:14:08;43.38;;;25.90;;
9745;SDS011;4912;50.836;12.958;2023-03-21T03:17:27;17.92;;;11.60;;
9745;SDS011;4912;50.836;12.958;2023-03-21T03:23:10;8.27;;;3.95;;
9745;SDS011;4912;50.836;12.958;2023-03-21T03:25:50;8.38;;;4.03;;
9745;SDS011;4912;50.836;12.958;2023-03-21T03:28:29;8.10;;;3.90;;
9745;SDS011;4912;50.836;12.958;2023-03-21T03:31:09;7.30;;;3.70;;
9745;SDS011;4912;50.836;12.958;2023-03-21T03:36:22;11.30;;;4.72;;
9745;SDS011;4912;50.836;12.958;2023-03-21T03:39:10;7.30;;;3.80;;
9745;SDS011;4912;50.836;12.958;2023-03-21T03:41:49;7.78;;;3.72;;
9745;SDS011;4912;50.836;12.958;2023-03-21T03:44:52;10.52;;;4.43;;
9745;SDS011;4912;50.836;12.958;2023-03-21T03:47:23;11.38;;;4.35;;
9745;SDS011;4912;50.836;12.958;2023-03-21T03:50:08;10.23;;;4.28;;
9745;SDS011;4912;50.836;12.958;2023-03-21T03:52:46;6.20;;;4.20;;
9745;SDS011;4912;50.836;12.958;2023-03-21T03:55:27;12.65;;;4.72;;
9745;SDS011;4912;50.836;12.958;2023-03-21T03:58:11;7.05;;;4.15;;
9745;SDS011;4912;50.836;12.958;2023-03-21T04:00:54;12.60;;;4.65;;
9745;SDS011;4912;50.836;12.958;2023-03-21T04:03:24;10.43;;;4.88;;
9745;SDS011;4912;50.836;12.958;2023-03-21T04:06:11;9.07;;;5.15;;
9745;SDS011;4912;50.836;12.958;2023-03-21T04:08:42;8.85;;;5.03;;
9745;SDS011;4912;50.836;12.958;2023-03-21T04:11:12;13.32;;;7.20;;
9745;SDS011;4912;50.836;12.958;2023-03-21T04:13:48;10.30;;;4.97;;
9745;SDS011;4912;50.836;12.958;2023-03-21T04:16:23;10.30;;;5.28;;
9745;SDS011;4912;50.836;12.958;2023-03-21T04:19:00;10.32;;;4.85;;
9745;SDS011;4912;50.836;12.958;2023-03-21T04:21:30;9.88;;;4.30;;
9745;SDS011;4912;50.836;12.958;2023-03-21T04:24:01;9.27;;;4.70;;
9745;SDS011;4912;50.836;12.958;2023-03-21T04:26:33;9.43;;;5.05;;
9745;SDS011;4912;50.836;12.958;2023-03-21T04:32:42;15.48;;;5.47;;
9745;SDS011;4912;50.836;12.958;2023-03-21T04:35:23;12.52;;;5.20;;
9745;SDS011;4912;50.836;12.958;2023-03-21T04:37:54;10.63;;;6.07;;
9745;SDS011;4912;50.836;12.958;2023-03-21T04:40:25;9.38;;;5.05;;
9745;SDS011;4912;50.836;12.958;2023-03-21T04:42:55;9.68;;;4.97;;
9745;SDS011;4912;50.836;12.958;2023-03-21T04:45:27;11.93;;;4.90;;
9745;SDS011;4912;50.836;12.958;2023-03-21T04:48:01;11.35;;;4.97;;
9745;SDS011;4912;50.836;12.958;2023-03-21T04:50:33;11.70;;;5.85;;
9745;SDS011;4912;50.836;12.958;2023-03-21T04:53:04;9.52;;;5.43;;
9745;SDS011;4912;50.836;12.958;2023-03-21T04:55:35;8.55;;;5.65;;
9745;SDS011;4912;50.836;12.958;2023-03-21T04:58:05;10.88;;;5.72;;
9745;SDS011;4912;50.836;12.958;2023-03-21T05:00:36;10.55;;;5.93;;
9745;SDS011;4912;50.836;12.958;2023-03-21T05:03:09;15.50;;;5.75;;
9745;SDS011;4912;50.836;12.958;2023-03-21T05:05:46;14.63;;;5.40;;
9745;SDS011;4912;50.836;12.958;2023-03-21T05:08:17;17.92;;;6.22;;
9745;SDS011;4912;50.836;12.958;2023-03-21T05:10:48;13.68;;;5.40;;
9745;SDS011;4912;50.836;12.958;2023-03-21T05:13:19;12.63;;;5.75;;
9745;SDS011;4912;50.836;12.958;2023-03-21T05:15:49;14.82;;;6.00;;
9745;SDS011;4912;50.836;12.958;2023-03-21T05:18:23;13.93;;;7.80;;
9745;SDS011;4912;50.836;12.958;2023-03-21T05:21:03;11.95;;;6.43;;
9745;SDS011;4912;50.836;12.958;2023-03-21T05:23:38;14.77;;;6.05;;
9745;SDS011;4912;50.836;12.958;2023-03-21T05:26:09;11.32;;;5.72;;
9745;SDS011;4912;50.836;12.958;2023-03-21T05:28:48;12.43;;;5.75;;
9745;SDS011;4912;50.836;12.958;2023-03-21T05:31:19;14.15;;;5.75;;
9745;SDS011;4912;50.836;12.958;2023-03-21T05:34:00;13.98;;;5.80;;
9745;SDS011;4912;50.836;12.958;2023-03-21T05:36:31;11.98;;;6.72;;
9745;SDS011;4912;50.836;12.958;2023-03-21T05:39:05;14.63;;;5.78;;
9745;SDS011;4912;50.836;12.958;2023-03-21T05:41:41;13.98;;;6.25;;
9745;SDS011;4912;50.836;12.958;2023-03-21T05:46:42;12.00;;;5.22;;
9745;SDS011;4912;50.836;12.958;2023-03-21T05:49:15;14.05;;;5.47;;
9745;SDS011;4912;50.836;12.958;2023-03-21T05:51:52;12.32;;;5.70;;
9745;SDS011;4912;50.836;12.958;2023-03-21T05:54:23;12.57;;;6.33;;
9745;SDS011;4912;50.836;12.958;2023-03-21T05:56:53;11.77;;;5.93;;
9745;SDS011;4912;50.836;12.958;2023-03-21T05:59:44;14.27;;;6.25;;
9745;SDS011;4912;50.836;12.958;2023-03-21T06:02:16;17.17;;;6.00;;
9745;SDS011;4912;50.836;12.958;2023-03-21T06:04:50;12.30;;;5.68;;
9745;SDS011;4912;50.836;12.958;2023-03-21T06:07:22;15.65;;;6.80;;
9745;SDS011;4912;50.836;12.958;2023-03-21T06:09:53;11.00;;;5.68;;
9745;SDS011;4912;50.836;12.958;2023-03-21T06:12:24;12.60;;;6.20;;
9745;SDS011;4912;50.836;12.958;2023-03-21T06:14:54;15.25;;;6.25;;
9745;SDS011;4912;50.836;12.958;2023-03-21T06:17:40;10.30;;;5.60;;
9745;SDS011;4912;50.836;12.958;2023-03-21T06:20:13;16.08;;;6.20;;
9745;SDS011;4912;50.836;12.958;2023-03-21T06:22:49;11.85;;;5.68;;
9745;SDS011;4912;50.836;12.958;2023-03-21T06:25:20;13.68;;;5.75;;
9745;SDS011;4912;50.836;12.958;2023-03-21T06:27:50;12.45;;;6.03;;
9745;SDS011;4912;50.836;12.958;2023-03-21T06:30:21;10.55;;;5.20;;
9745;SDS011;4912;50.836;12.958;2023-03-21T06:33:06;11.55;;;5.57;;
9745;SDS011;4912;50.836;12.958;2023-03-21T06:35:39;13.70;;;6.32;;
9745;SDS011;4912;50.836;12.958;2023-03-21T06:38:09;11.57;;;5.68;;
9745;SDS011;4912;50.836;12.958;2023-03-21T06:40:40;11.23;;;6.30;;
9745;SDS011;4912;50.836;12.958;2023-03-21T06:43:11;14.40;;;5.73;;
9745;SDS011;4912;50.836;12.958;2023-03-21T06:45:42;14.70;;;7.80;;
9745;SDS011;4912;50.836;12.958;2023-03-21T06:48:12;13.45;;;7.07;;
9745;SDS011;4912;50.836;12.958;2023-03-21T06:50:50;10.82;;;6.03;;
9745;SDS011;4912;50.836;12.958;2023-03-21T06:53:24;10.13;;;5.57;;
9745;SDS011;4912;50.836;12.958;2023-03-21T06:56:17;11.43;;;5.53;;
9745;SDS011;4912;50.836;12.958;2023-03-21T06:58:48;10.95;;;5.65;;
9745;SDS011;4912;50.836;12.958;2023-03-21T07:01:40;13.73;;;5.53;;
9745;SDS011;4912;50.836;12.958;2023-03-21T07:04:11;13.00;;;5.97;;
9745;SDS011;4912;50.836;12.958;2023-03-21T07:06:45;12.35;;;5.78;;
9745;SDS011;4912;50.836;12.958;2023-03-21T07:09:19;11.27;;;5.70;;
9745;SDS011;4912;50.836;12.958;2023-03-21T07:11:56;15.20;;;5.88;;
9745;SDS011;4912;50.836;12.958;2023-03-21T07:14:38;10.82;;;5.78;;
9745;SDS011;4912;50.836;12.958;2023-03-21T07:17:08;12.90;;;5.43;;
9745;SDS011;4912;50.836;12.958;2023-03-21T07:19:39;9.77;;;4.95;;
9745;SDS011;4912;50.836;12.958;2023-03-21T07:22:13;12.95;;;5.40;;
9745;SDS011;4912;50.836;12.958;2023-03-21T07:24:44;10.35;;;5.50;;
9745;SDS011;4912;50.836;12.958;2023-03-21T07:27:36;11.55;;;5.65;;
9745;SDS011;4912;50.836;12.958;2023-03-21T07:30:08;11.00;;;5.43;;
9745;SDS011;4912;50.836;12.958;2023-03-21T07:32:40;13.68;;;5.78;;
9745;SDS011;4912;50.836;12.958;2023-03-21T07:35:11;8.70;;;5.40;;
9745;SDS011;4912;50.836;12.958;2023-03-21T07:37:47;13.65;;;5.93;;
9745;SDS011;4912;50.836;12.958;2023-03-21T07:40:17;11.07;;;5.60;;
9745;SDS011;4912;50.836;12.958;2023-03-21T07:42:48;12.07;;;6.55;;
9745;SDS011;4912;50.836;12.958;2023-03-21T07:45:28;10.02;;;5.35;;
9745;SDS011;4912;50.836;12.958;2023-03-21T07:47:58;14.02;;;5.50;;
9745;SDS011;4912;50.836;12.958;2023-03-21T07:50:32;9.23;;;4.93;;
9745;SDS011;4912;50.836;12.958;2023-03-21T07:53:08;11.65;;;5.50;;
9745;SDS011;4912;50.836;12.958;2023-03-21T07:55:38;11.00;;;5.63;;
9745;SDS011;4912;50.836;12.958;2023-03-21T07:58:09;11.68;;;5.32;;
9745;SDS011;4912;50.836;12.958;2023-03-21T08:00:39;10.05;;;5.53;;
9745;SDS011;4912;50.836;12.958;2023-03-21T08:03:10;16.58;;;6.10;;
9745;SDS011;4912;50.836;12.958;2023-03-21T08:05:40;11.05;;;5.53;;
9745;SDS011;4912;50.836;12.958;2023-03-21T08:08:13;10.13;;;5.35;;
9745;SDS011;4912;50.836;12.958;2023-03-21T08:10:44;12.57;;;5.38;;
9745;SDS011;4912;50.836;12.958;2023-03-21T08:13:14;12.57;;;5.68;;
9745;SDS011;4912;50.836;12.958;2023-03-21T08:15:45;12.65;;;6.00;;
9745;SDS011;4912;50.836;12.958;2023-03-21T08:18:15;11.45;;;5.68;;
9745;SDS011;4912;50.836;12.958;2023-03-21T08:20:49;10.75;;;5.65;;
9745;SDS011;4912;50.836;12.958;2023-03-21T08:23:24;14.23;;;6.03;;
9745;SDS011;4912;50.836;12.958;2023-03-21T08:25:55;13.73;;;5.93;;
9745;SDS011;4912;50.836;12.958;2023-03-21T08:28:27;10.30;;;5.50;;
9745;SDS011;4912;50.836;12.958;2023-03-21T08:30:57;10.00;;;5.22;;
9745;SDS011;4912;50.836;12.958;2023-03-21T08:33:28;12.50;;;5.75;;
9745;SDS011;4912;50.836;12.958;2023-03-21T08:35:58;12.52;;;6.15;;
9745;SDS011;4912;50.836;12.958;2023-03-21T08:38:32;15.23;;;7.90;;
9745;SDS011;4912;50.836;12.958;2023-03-21T08:41:02;10.73;;;5.68;;
9745;SDS011;4912;50.836;12.958;2023-03-21T08:46:03;13.00;;;5.32;;
9745;SDS011;4912;50.836;12.958;2023-03-21T08:48:35;9.75;;;5.70;;
9745;SDS011;4912;50.836;12.958;2023-03-21T08:51:06;9.50;;;5.55;;
9745;SDS011;4912;50.836;12.958;2023-03-21T08:53:41;12.30;;;6.53;;
9745;SDS011;4912;50.836;12.958;2023-03-21T08:56:11;11.23;;;5.80;;
9745;SDS011;4912;50.836;12.958;2023-03-21T08:58:42;10.43;;;5.72;;
9745;SDS011;4912;50.836;12.958;2023-03-21T09:01:13;11.90;;;6.38;;
9745;SDS011;4912;50.836;12.958;2023-03-21T09:03:43;11.52;;;5.03;;
9745;SDS011;4912;50.836;12.958;2023-03-21T09:06:13;8.73;;;5.28;;
9745;SDS011;4912;50.836;12.958;2023-03-21T09:08:47;9.95;;;4.80;;
9745;SDS011;4912;50.836;12.958;2023-03-21T09:11:19;8.40;;;4.70;;
9745;SDS011;4912;50.836;12.958;2023-03-21T09:13:50;8.23;;;4.70;;
9745;SDS011;4912;50.836;12.958;2023-03-21T09:16:21;7.57;;;4.38;;
9745;SDS011;4912;50.836;12.958;2023-03-21T09:18:51;10.32;;;4.80;;
9745;SDS011;4912;50.836;12.958;2023-03-21T09:21:26;7.93;;;4.68;;
9745;SDS011;4912;50.836;12.958;2023-03-21T09:23:59;12.57;;;7.55;;
9745;SDS011;4912;50.836;12.958;2023-03-21T09:26:32;7.32;;;4.50;;
9745;SDS011;4912;50.836;12.958;2023-03-21T09:29:05;7.75;;;4.28;;
9745;SDS011;4912;50.836;12.958;2023-03-21T09:31:36;7.82;;;4.65;;
9745;SDS011;4912;50.836;12.958;2023-03-21T09:34:09;6.95;;;4.65;;
9745;SDS011;4912;50.836;12.958;2023-03-21T09:36:41;7.22;;;4.80;;
9745;SDS011;4912;50.836;12.958;2023-03-21T09:39:16;6.18;;;4.07;;
9745;SDS011;4912;50.836;12.958;2023-03-21T09:41:51;6.82;;;3.90;;
9745;SDS011;4912;50.836;12.958;2023-03-21T09:47:32;6.32;;;3.80;;
9745;SDS011;4912;50.836;12.958;2023-03-21T09:50:11;7.47;;;4.20;;
9745;SDS011;4912;50.836;12.958;2023-03-21T09:52:46;6.57;;;3.92;;
9745;SDS011;4912;50.836;12.958;2023-03-21T09:55:25;8.02;;;3.40;;
9745;SDS011;4912;50.836;12.958;2023-03-21T09:58:02;4.30;;;3.03;;
9745;SDS011;4912;50.836;12.958;2023-03-21T10:00:38;8.18;;;3.45;;
9745;SDS011;4912;50.836;12.958;2023-03-21T10:03:16;6.70;;;3.55;;
9745;SDS011;4912;50.836;12.958;2023-03-21T10:05:52;6.22;;;4.10;;
9745;SDS011;4912;50.836;12.958;2023-03-21T10:08:27;7.63;;;3.00;;
9745;SDS011;4912;50.836;12.958;2023-03-21T10:11:06;5.32;;;3.00;;
9745;SDS011;4912;50.836;12.958;2023-03-21T10:13:42;9.35;;;3.30;;
9745;SDS011;4912;50.836;12.958;2023-03-21T10:16:20;5.53;;;3.00;;
9745;SDS011;4912;50.836;12.958;2023-03-21T10:18:56;6.18;;;3.10;;
9745;SDS011;4912;50.836;12.958;2023-03-21T10:21:29;22.98;;;13.38;;
9745;SDS011;4912;50.836;12.958;2023-03-21T10:24:20;5.10;;;2.60;;
9745;SDS011;4912;50.836;12.958;2023-03-21T10:26:56;5.70;;;2.55;;
9745;SDS011;4912;50.836;12.958;2023-03-21T10:29:27;5.28;;;2.70;;
9745;SDS011;4912;50.836;12.958;2023-03-21T10:32:02;3.75;;;2.10;;
9745;SDS011;4912;50.836;12.958;2023-03-21T10:34:35;4.38;;;2.13;;
9745;SDS011;4912;50.836;12.958;2023-03-21T10:37:09;5.07;;;2.28;;
9745;SDS011;4912;50.836;12.958;2023-03-21T10:39:43;5.88;;;2.50;;
9745;SDS011;4912;50.836;12.958;2023-03-21T10:42:20;4.95;;;2.33;;
9745;SDS011;4912;50.836;12.958;2023-03-21T10:44:53;3.85;;;2.35;;
9745;SDS011;4912;50.836;12.958;2023-03-21T10:47:26;8.90;;;6.00;;
9745;SDS011;4912;50.836;12.958;2023-03-21T10:50:00;5.10;;;2.10;;
9745;SDS011;4912;50.836;12.958;2023-03-21T10:52:44;3.60;;;2.00;;
9745;SDS011;4912;50.836;12.958;2023-03-21T10:55:24;4.97;;;1.60;;
9745;SDS011;4912;50.836;12.958;2023-03-21T10:58:01;3.38;;;2.08;;
9745;SDS011;4912;50.836;12.958;2023-03-21T11:00:38;3.70;;;2.22;;
9745;SDS011;4912;50.836;12.958;2023-03-21T11:03:16;3.20;;;1.73;;
9745;SDS011;4912;50.836;12.958;2023-03-21T11:05:52;3.15;;;1.50;;
9745;SDS011;4912;50.836;12.958;2023-03-21T11:08:24;4.15;;;1.40;;
9745;SDS011;4912;50.836;12.958;2023-03-21T11:10:59;5.35;;;1.70;;
9745;SDS011;4912;50.836;12.958;2023-03-21T11:13:36;3.95;;;1.98;;
9745;SDS011;4912;50.836;12.958;2023-03-21T11:16:09;3.75;;;1.60;;
9745;SDS011;4912;50.836;12.958;2023-03-21T11:18:50;5.25;;;1.70;;
9745;SDS011;4912;50.836;12.958;2023-03-21T11:21:26;5.60;;;1.80;;
9745;SDS011;4912;50.836;12.958;2023-03-21T11:26:27;2.70;;;1.63;;
9745;SDS011;4912;50.836;12.958;2023-03-21T11:29:11;3.10;;;1.60;;
9745;SDS011;4912;50.836;12.958;2023-03-21T11:31:59;4.40;;;2.10;;
9745;SDS011;4912;50.836;12.958;2023-03-21T11:34:41;3.17;;;1.58;;
9745;SDS011;4912;50.836;12.958;2023-03-21T11:37:20;2.47;;;1.50;;
9745;SDS011;4912;50.836;12.958;2023-03-21T11:39:56;3.40;;;1.38;;
9745;SDS011;4912;50.836;12.958;2023-03-21T11:42:47;8.65;;;1.50;;
9745;SDS011;4912;50.836;12.958;2023-03-21T11:45:23;2.63;;;1.58;;
9745;SDS011;4912;50.836;12.958;2023-03-21T11:47:56;4.68;;;2.30;;
9745;SDS011;4912;50.836;12.958;2023-03-21T11:50:29;5.75;;;1.20;;
9745;SDS011;4912;50.836;12.958;2023-03-21T11:53:07;2.70;;;1.40;;
9745;SDS011;4912;50.836;12.958;2023-03-21T11:59:03;2.97;;;1.27;;
9745;SDS011;4912;50.836;12.958;2023-03-21T12:01:51;2.33;;;1.30;;
9745;SDS011;4912;50.836;12.958;2023-03-21T12:04:39;2.55;;;1.40;;
9745;SDS011;4912;50.836;12.958;2023-03-21T12:10:22;3.92;;;1.50;;
9745;SDS011;4912;50.836;12.958;2023-03-21T12:13:03;3.10;;;1.73;;
9745;SDS011;4912;50.836;12.958;2023-03-21T12:15:47;3.70;;;1.77;;
9745;SDS011;4912;50.836;12.958;2023-03-21T12:18:36;2.97;;;1.55;;
9745;SDS011;4912;50.836;12.958;2023-03-21T12:21:28;3.10;;;1.90;;
9745;SDS011;4912;50.836;12.958;2023-03-21T12:24:05;3.15;;;1.60;;
9745;SDS011;4912;50.836;12.958;2023-03-21T12:26:44;3.53;;;1.77;;
9745;SDS011;4912;50.836;12.958;2023-03-21T12:29:33;6.30;;;2.85;;
9745;SDS011;4912;50.836;12.958;2023-03-21T12:32:20;3.25;;;1.67;;
9745;SDS011;4912;50.836;12.958;2023-03-21T12:35:08;5.60;;;1.90;;
9745;SDS011;4912;50.836;12.958;2023-03-21T12:37:52;3.50;;;2.13;;
9745;SDS011;4912;50.836;12.958;2023-03-21T12:40:47;4.45;;;2.20;;
9745;SDS011;4912;50.836;12.958;2023-03-21T12:43:44;4.32;;;1.88;;
9745;SDS011;4912;50.836;12.958;2023-03-21T12:46:21;4.60;;;2.08;;
9745;SDS011;4912;50.836;12.958;2023-03-21T12:48:59;5.75;;;2.38;;
9745;SDS011;4912;50.836;12.958;2023-03-21T12:51:37;3.85;;;1.88;;
9745;SDS011;4912;50.836;12.958;2023-03-21T12:54:14;3.72;;;2.00;;
9745;SDS011;4912;50.836;12.958;2023-03-21T12:56:53;3.20;;;1.00;;
9745;SDS011;4912;50.836;12.958;2023-03-21T13:02:13;2.63;;;1.35;;
9745;SDS011;4912;50.836;12.958;2023-03-21T13:04:51;4.53;;;1.67;;
9745;SDS011;4912;50.836;12.958;2023-03-21T13:07:33;4.60;;;1.65;;
9745;SDS011;4912;50.836;12.958;2023-03-21T13:10:11;4.65;;;1.80;;
9745;SDS011;4912;50.836;12.958;2023-03-21T13:12:47;4.57;;;1.80;;
9745;SDS011;4912;50.836;12.958;2023-03-21T13:15:42;2.80;;;1.55;;
9745;SDS011;4912;50.836;12.958;2023-03-21T13:18:26;4.57;;;1.65;;
9745;SDS011;4912;50.836;12.958;2023-03-21T13:21:09;2.90;;;1.60;;
9745;SDS011;4912;50.836;12.958;2023-03-21T13:23:57;3.58;;;1.30;;
9745;SDS011;4912;50.836;12.958;2023-03-21T13:26:31;3.50;;;1.40;;
9745;SDS011;4912;50.836;12.958;2023-03-21T13:29:13;5.05;;;2.58;;
9745;SDS011;4912;50.836;12.958;2023-03-21T13:31:52;7.00;;;1.95;;
9745;SDS011;4912;50.836;12.958;2023-03-21T13:34:25;3.20;;;1.38;;
9745;SDS011;4912;50.836;12.958;2023-03-21T13:36:56;4.28;;;1.90;;
9745;SDS011;4912;50.836;12.958;2023-03-21T13:39:30;4.65;;;2.20;;
9745;SDS011;4912;50.836;12.958;2023-03-21T13:42:01;3.80;;;1.70;;
9745;SDS011;4912;50.836;12.958;2023-03-21T13:44:38;2.88;;;1.50;;
9745;SDS011;4912;50.836;12.958;2023-03-21T13:47:23;4.97;;;2.10;;
9745;SDS011;4912;50.836;12.958;2023-03-21T13:58:57;4.20;;;1.90;;
9745;SDS011;4912;50.836;12.958;2023-03-21T14:01:31;5.25;;;2.28;;
9745;SDS011;4912;50.836;12.958;2023-03-21T14:04:08;5.90;;;1.97;;
9745;SDS011;4912;50.836;12.958;2023-03-21T14:06:46;4.68;;;2.20;;
9745;SDS011;4912;50.836;12.958;2023-03-21T14:09:30;4.68;;;1.95;;
9745;SDS011;4912;50.836;12.958;2023-03-21T14:12:09;2.88;;;1.60;;
9745;SDS011;4912;50.836;12.958;2023-03-21T14:14:46;3.25;;;1.73;;
9745;SDS011;4912;50.836;12.958;2023-03-21T14:17:24;6.45;;;2.38;;
9745;SDS011;4912;50.836;12.958;2023-03-21T14:19:58;5.97;;;1.70;;
9745;SDS011;4912;50.836;12.958;2023-03-21T14:22:37;3.72;;;1.90;;
9745;SDS011;4912;50.836;12.958;2023-03-21T14:25:10;4.85;;;2.10;;
9745;SDS011;4912;50.836;12.958;2023-03-21T14:27:46;5.82;;;1.73;;
9745;SDS011;4912;50.836;12.958;2023-03-21T14:30:20;4.57;;;2.13;;
9745;SDS011;4912;50.836;12.958;2023-03-21T14:32:55;5.13;;;2.17;;
9745;SDS011;4912;50.836;12.958;2023-03-21T14:35:27;5.47;;;2.25;;
9745;SDS011;4912;50.836;12.958;2023-03-21T14:38:03;7.97;;;2.30;;
9745;SDS011;4912;50.836;12.958;2023-03-21T14:40:36;3.00;;;1.65;;
9745;SDS011;4912;50.836;12.958;2023-03-21T14:43:18;6.20;;;2.25;;
9745;SDS011;4912;50.836;12.958;2023-03-21T14:45:50;4.95;;;1.80;;
9745;SDS011;4912;50.836;12.958;2023-03-21T14:48:28;5.05;;;1.90;;
9745;SDS011;4912;50.836;12.958;2023-03-21T14:51:00;3.80;;;1.80;;
9745;SDS011;4912;50.836;12.958;2023-03-21T14:53:36;4.53;;;2.03;;
9745;SDS011;4912;50.836;12.958;2023-03-21T14:56:09;3.70;;;1.70;;
9745;SDS011;4912;50.836;12.958;2023-03-21T14:58:50;5.38;;;1.98;;
9745;SDS011;4912;50.836;12.958;2023-03-21T15:01:23;3.58;;;1.80;;
9745;SDS011;4912;50.836;12.958;2023-03-21T15:03:59;5.50;;;2.10;;
9745;SDS011;4912;50.836;12.958;2023-03-21T15:06:36;5.70;;;2.15;;
9745;SDS011;4912;50.836;12.958;2023-03-21T15:09:23;3.45;;;1.70;;
9745;SDS011;4912;50.836;12.958;2023-03-21T15:11:56;5.45;;;1.85;;
9745;SDS011;4912;50.836;12.958;2023-03-21T15:14:32;3.70;;;1.63;;
9745;SDS011;4912;50.836;12.958;2023-03-21T15:17:04;4.95;;;1.50;;
9745;SDS011;4912;50.836;12.958;2023-03-21T15:19:36;6.45;;;1.92;;
9745;SDS011;4912;50.836;12.958;2023-03-21T15:22:12;4.85;;;2.20;;
9745;SDS011;4912;50.836;12.958;2023-03-21T15:24:49;4.57;;;1.67;;
9745;SDS011;4912;50.836;12.958;2023-03-21T15:27:23;3.42;;;1.80;;
9745;SDS011;4912;50.836;12.958;2023-03-21T15:29:56;3.60;;;1.40;;
9745;SDS011;4912;50.836;12.958;2023-03-21T15:32:27;4.32;;;1.30;;
9745;SDS011;4912;50.836;12.958;2023-03-21T15:37:36;2.53;;;1.23;;
9745;SDS011;4912;50.836;12.958;2023-03-21T15:40:08;4.47;;;1.20;;
9745;SDS011;4912;50.836;12.958;2023-03-21T15:42:48;3.92;;;1.48;;
9745;SDS011;4912;50.836;12.958;2023-03-21T15:45:22;3.75;;;1.60;;
9745;SDS011;4912;50.836;12.958;2023-03-21T15:47:57;4.45;;;1.83;;
9745;SDS011;4912;50.836;12.958;2023-03-21T15:50:32;5.10;;;1.80;;
9745;SDS011;4912;50.836;12.958;2023-03-21T15:53:08;6.18;;;1.60;;
9745;SDS011;4912;50.836;12.958;2023-03-21T15:55:43;2.80;;;1.50;;
9745;SDS011;4912;50.836;12.958;2023-03-21T15:58:18;6.95;;;1.90;;
9745;SDS011;4912;50.836;12.958;2023-03-21T16:00:54;4.45;;;1.80;;
9745;SDS011;4912;50.836;12.958;2023-03-21T16:03:34;5.00;;;1.67;;
9745;SDS011;4912;50.836;12.958;2023-03-21T16:06:13;3.92;;;2.13;;
9745;SDS011;4912;50.836;12.958;2023-03-21T16:08:48;7.15;;;1.92;;
9745;SDS011;4912;50.836;12.958;2023-03-21T16:11:22;5.22;;;1.67;;
9745;SDS011;4912;50.836;12.958;2023-03-21T16:13:57;3.72;;;1.70;;
9745;SDS011;4912;50.836;12.958;2023-03-21T16:16:30;7.50;;;1.80;;
9745;SDS011;4912;50.836;12.958;2023-03-21T16:19:01;5.68;;;2.00;;
9745;SDS011;4912;50.836;12.958;2023-03-21T16:21:32;3.90;;;1.60;;
9745;SDS011;4912;50.836;12.958;2023-03-21T16:24:04;6.32;;;2.85;;
9745;SDS011;4912;50.836;12.958;2023-03-21T16:26:37;5.20;;;1.90;;
9745;SDS011;4912;50.836;12.958;2023-03-21T16:29:13;4.20;;;1.90;;
9745;SDS011;4912;50.836;12.958;2023-03-21T16:31:48;5.75;;;2.10;;
9745;SDS011;4912;50.836;12.958;2023-03-21T16:34:19;5.32;;;2.20;;
9745;SDS011;4912;50.836;12.958;2023-03-21T16:36:49;9.40;;;2.75;;
9745;SDS011;4912;50.836;12.958;2023-03-21T16:39:20;5.18;;;2.00;;